Time;durP1;ratioP1;P1;durP2;ratioP2;P2;SDS_P1;SDS_P2;PMS_P1;PMS_P2;Temp;Humidity;BMP_temperature;BMP_pressure;BME280_temperature;BME280_humidity;BME280_pressure;Samples;Min_cycle;Max_cycle;Signal;HPM_P1;HPM_P2
2022/05/01 00:01:14;;;;;;;1.40;1.30;;;9.90;99.90;;;;;;4974741;28;20528;-82
2022/05/01 00:03:39;;;;;;;0.30;0.30;;;9.80;99.90;;;;;;4974155;28;20033;-82
2022/05/01 00:06:09;;;;;;;0.20;0.20;;;9.80;99.90;;;;;;4973168;28;20126;-82
2022/05/01 00:08:37;;;;;;;0.65;0.65;;;9.80;99.90;;;;;;4973412;28;20058;-82
2022/05/01 00:11:03;;;;;;;0.52;0.52;;;9.80;99.90;;;;;;4966955;28;20034;-82
2022/05/01 00:13:29;;;;;;;1.27;0.47;;;9.70;99.90;;;;;;4972789;28;20033;-82
2022/05/01 00:15:55;;;;;;;0.10;0.10;;;9.60;99.90;;;;;;4974969;28;20050;-82
2022/05/01 00:18:21;;;;;;;0.75;0.52;;;9.60;99.90;;;;;;4973041;28;20509;-82
2022/05/01 00:20:47;;;;;;;0.65;0.30;;;9.50;99.90;;;;;;4973782;28;20027;-82
2022/05/01 00:23:13;;;;;;;0.05;0.05;;;9.50;99.90;;;;;;4973826;28;20050;-82
2022/05/01 00:25:41;;;;;;;0.90;0.88;;;9.50;99.90;;;;;;4973962;28;20073;-82
2022/05/01 00:28:08;;;;;;;0.52;0.45;;;9.50;99.90;;;;;;4975508;28;20115;-81
2022/05/01 00:30:34;;;;;;;0.10;0.10;;;9.40;99.90;;;;;;4974207;28;20023;-81
2022/05/01 00:38:27;;;;;;;0.10;0.10;;;9.30;99.90;;;;;;4975394;28;20057;-81
2022/05/01 00:40:54;;;;;;;0.10;0.10;;;9.30;99.90;;;;;;4974614;28;20027;-82
2022/05/01 00:43:19;;;;;;;0.75;0.55;;;9.20;99.90;;;;;;4969907;28;20102;-81
2022/05/01 00:45:45;;;;;;;0.43;0.40;;;9.20;99.90;;;;;;4972834;28;20400;-81
2022/05/01 00:48:10;;;;;;;0.45;0.45;;;9.10;99.90;;;;;;4974453;28;20027;-82
2022/05/01 00:50:36;;;;;;;0.15;0.15;;;9.10;99.90;;;;;;4986777;28;20438;-81
2022/05/01 00:53:05;;;;;;;0.70;0.47;;;9.10;99.90;;;;;;4972280;28;20114;-81
2022/05/01 00:55:34;;;;;;;0.00;0.00;;;9.00;99.90;;;;;;4973138;28;20173;-82
2022/05/01 00:58:01;;;;;;;1.65;0.77;;;9.00;99.90;;;;;;4972505;28;20062;-82
2022/05/01 01:00:27;;;;;;;0.20;0.20;;;9.00;99.90;;;;;;4972815;28;20027;-80
2022/05/01 01:02:53;;;;;;;0.10;0.10;;;9.00;99.90;;;;;;4970794;28;20374;-80
2022/05/01 01:05:18;;;;;;;5.25;1.00;;;8.90;99.90;;;;;;4972836;28;20029;-80
2022/05/01 01:07:43;;;;;;;0.10;0.10;;;8.90;99.90;;;;;;4972414;28;20036;-80
2022/05/01 01:10:10;;;;;;;0.10;0.10;;;8.80;99.90;;;;;;4976247;28;20035;-80
2022/05/01 01:12:54;;;;;;;1.15;1.02;;;8.80;99.90;;;;;;4972051;28;20030;-81
2022/05/01 01:15:21;;;;;;;0.20;0.20;;;8.70;99.90;;;;;;4972255;28;20139;-81
2022/05/01 01:17:52;;;;;;;0.00;0.00;;;8.70;99.90;;;;;;4971274;28;20051;-80
2022/05/01 01:20:22;;;;;;;0.15;0.15;;;8.60;99.90;;;;;;4975740;28;20227;-80
2022/05/01 01:22:49;;;;;;;0.55;0.52;;;8.60;99.90;;;;;;4971585;28;20079;-81
2022/05/01 01:25:18;;;;;;;0.00;0.00;;;8.50;99.90;;;;;;4976224;28;20053;-80
2022/05/01 01:27:44;;;;;;;0.20;0.20;;;8.50;99.90;;;;;;4971036;28;20030;-80
2022/05/01 01:32:54;;;;;;;0.57;0.50;;;8.50;99.90;;;;;;4971662;28;20085;-80
2022/05/01 01:35:23;;;;;;;1.92;1.13;;;8.40;99.90;;;;;;4968024;28;20027;-80
2022/05/01 01:37:52;;;;;;;0.35;0.35;;;8.40;99.90;;;;;;4971746;28;20489;-80
2022/05/01 01:40:23;;;;;;;0.13;0.13;;;8.30;99.90;;;;;;4971760;28;20045;-80
2022/05/01 01:42:50;;;;;;;0.30;0.22;;;8.30;99.90;;;;;;4969629;28;20026;-81
2022/05/01 01:45:16;;;;;;;0.63;0.63;;;8.30;99.90;;;;;;4967323;28;20038;-80
2022/05/01 01:47:43;;;;;;;0.08;0.08;;;8.20;99.90;;;;;;4971736;28;20441;-81
2022/05/01 01:50:11;;;;;;;0.20;0.20;;;8.10;99.90;;;;;;4971827;28;20038;-80
2022/05/01 01:52:36;;;;;;;0.40;0.40;;;8.10;99.90;;;;;;4971213;28;20030;-80
2022/05/01 01:55:02;;;;;;;0.50;0.50;;;8.10;99.90;;;;;;4970856;28;20441;-80
2022/05/01 01:57:29;;;;;;;0.17;0.17;;;8.10;99.90;;;;;;4970937;28;20026;-81
2022/05/01 01:59:54;;;;;;;0.25;0.25;;;8.10;99.90;;;;;;4962361;28;20119;-81
2022/05/01 02:02:20;;;;;;;0.00;0.00;;;8.10;99.90;;;;;;4967251;28;20106;-80
2022/05/01 02:04:45;;;;;;;2.05;1.55;;;8.10;99.90;;;;;;4971034;28;20038;-80
2022/05/01 02:07:11;;;;;;;0.38;0.38;;;8.00;99.90;;;;;;4967664;28;20038;-80
2022/05/01 02:09:37;;;;;;;0.10;0.10;;;8.00;99.90;;;;;;4970265;28;20023;-81
2022/05/01 02:12:08;;;;;;;1.45;0.38;;;8.00;99.90;;;;;;4970424;28;20118;-81
2022/05/01 02:14:34;;;;;;;0.10;0.10;;;8.00;99.90;;;;;;4960673;28;20057;-81
2022/05/01 02:17:02;;;;;;;0.28;0.28;;;8.00;99.90;;;;;;4969108;28;20092;-80
2022/05/01 02:19:28;;;;;;;0.63;0.60;;;8.00;99.90;;;;;;4974547;28;20106;-80
2022/05/01 02:21:54;;;;;;;2.25;0.60;;;8.00;99.90;;;;;;4971194;28;20118;-80
2022/05/01 02:24:19;;;;;;;0.30;0.08;;;8.00;99.90;;;;;;4971580;28;20019;-80
2022/05/01 02:26:46;;;;;;;1.00;0.63;;;7.90;99.90;;;;;;4967042;28;20275;-80
2022/05/01 02:29:12;;;;;;;0.20;0.20;;;7.90;99.90;;;;;;4961250;28;20058;-81
2022/05/01 02:31:42;;;;;;;0.80;0.80;;;7.90;99.90;;;;;;4970275;28;20405;-80
2022/05/01 02:34:08;;;;;;;0.15;0.15;;;7.90;99.90;;;;;;4970515;28;20031;-80
2022/05/01 02:36:34;;;;;;;0.25;0.25;;;7.80;99.90;;;;;;4976327;28;20030;-81
2022/05/01 02:38:59;;;;;;;0.10;0.10;;;7.90;99.90;;;;;;4977881;28;20019;-80
2022/05/01 02:41:25;;;;;;;0.13;0.13;;;7.90;99.90;;;;;;4964304;28;20026;-80
2022/05/01 02:43:51;;;;;;;1.17;0.40;;;7.90;99.90;;;;;;4970647;28;20034;-80
2022/05/01 02:46:16;;;;;;;0.75;0.38;;;7.90;99.90;;;;;;4972347;28;20291;-80
2022/05/01 02:48:42;;;;;;;0.80;0.70;;;7.90;99.90;;;;;;4969141;28;20042;-80
2022/05/01 02:51:07;;;;;;;0.20;0.20;;;7.90;99.90;;;;;;4968231;28;20027;-80
2022/05/01 02:53:33;;;;;;;0.00;0.00;;;7.90;99.90;;;;;;4960070;28;20022;-81
2022/05/01 02:56:02;;;;;;;0.73;0.47;;;7.90;99.90;;;;;;4970608;28;20577;-81
2022/05/01 02:58:29;;;;;;;0.00;0.00;;;7.90;99.90;;;;;;4972950;28;20065;-81
2022/05/01 03:00:56;;;;;;;0.10;0.10;;;7.90;99.90;;;;;;4970218;28;20121;-80
2022/05/01 03:03:22;;;;;;;0.00;0.00;;;7.80;99.90;;;;;;4970719;28;20169;-80
2022/05/01 03:05:47;;;;;;;0.20;0.20;;;7.80;99.90;;;;;;4969929;28;20403;-80
2022/05/01 03:08:13;;;;;;;0.20;0.20;;;7.80;99.90;;;;;;4972225;28;20023;-80
2022/05/01 03:10:40;;;;;;;0.55;0.55;;;7.80;99.90;;;;;;4970103;28;20097;-81
2022/05/01 03:13:05;;;;;;;0.30;0.30;;;7.80;99.90;;;;;;4969303;28;20054;-81
2022/05/01 03:15:31;;;;;;;0.10;0.10;;;7.80;99.90;;;;;;4968009;28;20022;-81
2022/05/01 03:23:24;;;;;;;0.20;0.20;;;7.70;99.90;;;;;;4970952;28;20497;-81
2022/05/01 03:25:50;;;;;;;0.10;0.10;;;7.80;99.90;;;;;;4970400;28;20126;-81
2022/05/01 03:28:15;;;;;;;0.45;0.45;;;7.80;99.90;;;;;;4970587;28;20049;-81
2022/05/01 03:30:41;;;;;;;1.05;0.93;;;7.80;99.90;;;;;;4970046;28;20493;-81
2022/05/01 03:33:07;;;;;;;0.20;0.20;;;7.80;99.90;;;;;;4969215;28;20390;-80
2022/05/01 03:35:37;;;;;;;0.30;0.30;;;7.80;99.90;;;;;;4970472;28;20042;-81
2022/05/01 03:38:09;;;;;;;0.30;0.30;;;7.80;99.90;;;;;;4969924;28;20042;-81
2022/05/01 03:40:37;;;;;;;0.43;0.32;;;7.90;99.90;;;;;;4969367;28;20082;-81
2022/05/01 03:43:03;;;;;;;0.10;0.10;;;7.90;99.90;;;;;;4969510;28;20073;-81
2022/05/01 03:45:29;;;;;;;0.00;0.00;;;7.80;99.90;;;;;;4970399;28;20053;-81
2022/05/01 03:47:55;;;;;;;0.13;0.13;;;7.80;99.90;;;;;;4968725;28;20039;-80
2022/05/01 03:50:20;;;;;;;0.55;0.55;;;7.80;99.90;;;;;;4970396;28;20023;-81
2022/05/01 03:52:46;;;;;;;0.20;0.20;;;7.80;99.90;;;;;;4970080;28;20448;-81
2022/05/01 03:55:12;;;;;;;0.17;0.17;;;7.80;99.90;;;;;;4969741;28;20030;-82
2022/05/01 03:57:38;;;;;;;0.35;0.35;;;7.80;99.90;;;;;;4968587;28;20030;-82
2022/05/01 04:00:05;;;;;;;0.08;0.08;;;7.80;99.90;;;;;;4968214;28;20027;-81
2022/05/01 04:02:38;;;;;;;0.10;0.10;;;7.80;99.90;;;;;;4968206;28;20585;-81
2022/05/01 04:05:04;;;;;;;0.22;0.22;;;7.70;99.90;;;;;;4968528;28;20151;-81
2022/05/01 04:07:30;;;;;;;0.10;0.10;;;7.70;99.90;;;;;;4968759;28;20133;-81
2022/05/01 04:09:55;;;;;;;0.13;0.13;;;7.80;99.90;;;;;;4976113;28;20039;-82
2022/05/01 04:12:21;;;;;;;0.40;0.40;;;7.70;99.90;;;;;;4970786;28;20411;-81
2022/05/01 04:14:47;;;;;;;0.40;0.40;;;7.80;99.90;;;;;;4969350;28;20034;-81
2022/05/01 04:17:12;;;;;;;0.77;0.43;;;7.80;99.90;;;;;;4964932;28;20390;-80
2022/05/01 04:19:37;;;;;;;0.10;0.10;;;7.80;99.90;;;;;;4970991;28;20030;-77
2022/05/01 04:22:04;;;;;;;0.13;0.13;;;7.80;99.90;;;;;;4969021;28;20243;-77
2022/05/01 04:24:32;;;;;;;0.10;0.10;;;7.80;99.90;;;;;;4965553;28;20026;-76
2022/05/01 04:26:58;;;;;;;0.10;0.10;;;7.80;99.90;;;;;;4972841;28;20125;-76
2022/05/01 04:29:40;;;;;;;0.43;0.43;;;7.70;99.90;;;;;;4972889;28;20135;-76
2022/05/01 04:32:06;;;;;;;0.22;0.22;;;7.70;99.90;;;;;;4975745;28;20153;-75
2022/05/01 04:34:33;;;;;;;0.57;0.57;;;7.80;99.90;;;;;;4977247;28;20031;-80
2022/05/01 04:36:59;;;;;;;0.52;0.52;;;7.80;99.90;;;;;;4969255;28;20439;-80
2022/05/01 04:39:25;;;;;;;0.32;0.32;;;7.90;99.90;;;;;;4966513;28;20481;-85
2022/05/01 04:41:52;;;;;;;0.00;0.00;;;7.90;99.90;;;;;;4960407;28;20131;-84
2022/05/01 04:44:17;;;;;;;0.10;0.10;;;7.90;99.90;;;;;;4970154;28;20034;-85
2022/05/01 04:46:43;;;;;;;0.35;0.30;;;8.00;99.90;;;;;;4965839;28;20053;-84
2022/05/01 04:49:09;;;;;;;0.20;0.20;;;8.00;99.90;;;;;;4969589;28;20042;-85
2022/05/01 04:51:35;;;;;;;0.40;0.40;;;8.00;99.90;;;;;;4970553;28;20397;-85
2022/05/01 04:54:00;;;;;;;1.10;0.85;;;8.00;99.90;;;;;;4969279;28;20027;-83
2022/05/01 04:59:10;;;;;;;0.65;0.65;;;8.20;99.90;;;;;;4970399;28;20057;-86
2022/05/01 05:01:35;;;;;;;0.85;0.40;;;8.30;99.90;;;;;;4968120;28;20039;-87
2022/05/01 05:04:02;;;;;;;0.65;0.50;;;8.30;99.90;;;;;;4969385;28;20276;-86
2022/05/01 05:06:27;;;;;;;0.25;0.22;;;8.40;99.90;;;;;;4968491;28;20043;-86
2022/05/01 05:11:37;;;;;;;0.15;0.15;;;8.50;99.90;;;;;;4968622;28;20029;-86
2022/05/01 05:14:04;;;;;;;0.22;0.22;;;8.70;99.90;;;;;;4971335;28;20035;-86
2022/05/01 05:16:29;;;;;;;0.90;0.90;;;8.80;99.90;;;;;;4970020;28;20029;-86
2022/05/01 05:18:55;;;;;;;0.03;0.03;;;8.90;99.90;;;;;;4969494;28;20027;-85
2022/05/01 05:21:21;;;;;;;0.30;0.30;;;9.00;99.90;;;;;;4972966;28;21186;-85
2022/05/01 05:23:46;;;;;;;0.20;0.20;;;9.10;99.90;;;;;;4968519;28;20154;-86
2022/05/01 05:26:11;;;;;;;0.10;0.10;;;9.20;99.90;;;;;;4970590;28;20158;-85
2022/05/01 05:28:37;;;;;;;0.30;0.30;;;9.30;99.90;;;;;;4967459;28;20059;-86
2022/05/01 05:31:03;;;;;;;0.85;0.32;;;9.40;99.90;;;;;;4969953;28;20029;-85
2022/05/01 05:33:29;;;;;;;0.93;0.75;;;9.50;99.90;;;;;;4969783;28;20054;-86
2022/05/01 05:35:54;;;;;;;0.22;0.22;;;9.70;99.90;;;;;;4968076;28;20046;-85
2022/05/01 05:38:20;;;;;;;0.43;0.43;;;9.90;99.90;;;;;;4969098;28;20030;-85
2022/05/01 05:40:46;;;;;;;0.32;0.32;;;10.10;99.90;;;;;;4967250;28;20020;-86
2022/05/01 05:43:12;;;;;;;1.65;0.38;;;10.30;99.90;;;;;;4968837;28;20031;-85
2022/05/01 05:45:38;;;;;;;0.30;0.30;;;10.40;99.90;;;;;;4966078;28;20077;-86
2022/05/01 05:48:04;;;;;;;0.50;0.50;;;10.60;99.90;;;;;;4967373;28;20038;-85
2022/05/01 05:50:30;;;;;;;0.47;0.47;;;10.80;99.90;;;;;;4967763;28;20023;-86
2022/05/01 05:52:55;;;;;;;5.38;0.63;;;11.10;99.90;;;;;;4969940;28;20093;-85
2022/05/01 05:55:21;;;;;;;0.25;0.25;;;11.30;99.90;;;;;;4967809;28;20027;-85
2022/05/01 05:57:46;;;;;;;0.20;0.20;;;11.50;99.90;;;;;;4968986;28;20035;-85
2022/05/01 06:00:13;;;;;;;0.30;0.30;;;11.70;99.90;;;;;;4967994;28;20030;-86
2022/05/01 06:02:38;;;;;;;0.10;0.10;;;11.80;99.90;;;;;;4969584;28;20478;-86
2022/05/01 06:05:04;;;;;;;0.00;0.00;;;11.90;99.90;;;;;;4968207;28;20134;-85
2022/05/01 06:07:30;;;;;;;1.25;0.68;;;12.00;99.90;;;;;;4969083;28;20031;-86
2022/05/01 06:09:56;;;;;;;1.65;0.82;;;12.10;99.90;;;;;;4969264;28;20031;-86
2022/05/01 06:12:21;;;;;;;1.45;1.00;;;12.10;99.90;;;;;;4965845;28;20038;-86
2022/05/01 06:14:47;;;;;;;0.80;0.77;;;12.00;99.90;;;;;;4963501;28;20027;-86
2022/05/01 06:17:12;;;;;;;0.82;0.77;;;12.00;99.90;;;;;;4967560;28;20018;-86
2022/05/01 06:19:39;;;;;;;0.80;0.52;;;12.00;99.90;;;;;;4964009;28;20114;-86
2022/05/01 06:22:04;;;;;;;0.28;0.28;;;12.00;99.90;;;;;;4965026;28;20053;-82
2022/05/01 06:24:30;;;;;;;0.32;0.32;;;12.10;99.90;;;;;;4970200;28;20062;-78
2022/05/01 06:26:55;;;;;;;1.10;1.02;;;12.20;99.40;;;;;;4970831;28;20109;-77
2022/05/01 06:29:21;;;;;;;0.20;0.20;;;12.20;99.50;;;;;;4971080;28;20045;-77
2022/05/01 06:31:47;;;;;;;0.28;0.25;;;12.30;99.50;;;;;;4971364;28;20058;-77
2022/05/01 06:34:14;;;;;;;0.00;0.00;;;12.30;99.70;;;;;;4974013;28;20026;-76
2022/05/01 06:36:39;;;;;;;1.55;1.45;;;12.30;99.90;;;;;;4970925;28;20106;-77
2022/05/01 06:39:11;;;;;;;0.90;0.90;;;12.50;99.00;;;;;;4969796;28;20113;-76
2022/05/01 06:41:37;;;;;;;0.28;0.28;;;12.50;98.20;;;;;;4965335;28;20043;-77
2022/05/01 06:44:02;;;;;;;0.20;0.08;;;12.50;97.60;;;;;;4963922;28;20101;-77
2022/05/01 06:46:28;;;;;;;0.28;0.28;;;12.40;97.90;;;;;;4968742;28;20034;-78
2022/05/01 06:48:53;;;;;;;0.80;0.52;;;12.30;97.70;;;;;;4971299;28;20117;-77
2022/05/01 06:51:19;;;;;;;0.70;0.70;;;12.30;97.80;;;;;;4971871;28;20039;-76
2022/05/01 06:53:44;;;;;;;0.05;0.05;;;12.30;97.90;;;;;;4968011;28;20074;-77
2022/05/01 06:56:10;;;;;;;0.22;0.20;;;12.30;98.20;;;;;;4969404;28;20033;-77
2022/05/01 06:58:35;;;;;;;0.10;0.10;;;12.40;98.20;;;;;;4962557;28;20432;-77
2022/05/01 07:01:01;;;;;;;2.15;1.23;;;12.40;96.90;;;;;;4965784;28;20027;-77
2022/05/01 07:03:27;;;;;;;0.20;0.20;;;12.40;95.40;;;;;;4970613;28;20052;-77
2022/05/01 07:05:52;;;;;;;1.48;0.40;;;12.40;96.70;;;;;;4971829;28;20030;-77
2022/05/01 07:08:19;;;;;;;0.00;0.00;;;12.50;95.70;;;;;;4972150;28;20034;-77
2022/05/01 07:10:44;;;;;;;0.22;0.22;;;12.60;96.00;;;;;;4969953;28;20027;-78
2022/05/01 07:13:10;;;;;;;0.25;0.25;;;12.70;95.30;;;;;;4968152;28;20035;-77
2022/05/01 07:15:37;;;;;;;0.10;0.10;;;12.80;95.40;;;;;;4978094;28;20101;-77
2022/05/01 07:18:03;;;;;;;0.52;0.52;;;12.90;93.40;;;;;;4969319;28;20065;-78
2022/05/01 07:20:30;;;;;;;1.65;0.38;;;13.00;93.60;;;;;;4969208;28;20027;-78
2022/05/01 07:22:55;;;;;;;0.63;0.63;;;13.20;93.60;;;;;;4969810;28;20034;-77
2022/05/01 07:25:21;;;;;;;0.98;0.70;;;13.40;92.70;;;;;;4968555;28;20026;-78
2022/05/01 07:27:46;;;;;;;0.13;0.13;;;13.50;92.70;;;;;;4977552;28;20236;-78
2022/05/01 07:30:12;;;;;;;0.57;0.38;;;13.60;91.20;;;;;;4967664;28;20027;-76
2022/05/01 07:32:38;;;;;;;2.78;0.75;;;13.70;91.40;;;;;;4969664;28;20033;-78
2022/05/01 07:35:04;;;;;;;0.13;0.13;;;13.90;89.80;;;;;;4970678;28;20023;-78
2022/05/01 07:37:30;;;;;;;0.05;0.05;;;14.20;90.00;;;;;;4970696;28;20023;-77
2022/05/01 07:39:55;;;;;;;0.00;0.00;;;14.30;87.80;;;;;;4968491;28;20114;-77
2022/05/01 07:42:23;;;;;;;0.00;0.00;;;14.40;84.30;;;;;;4969279;28;20019;-77
2022/05/01 07:44:49;;;;;;;0.22;0.22;;;14.50;83.50;;;;;;4969290;28;20043;-77
2022/05/01 07:47:14;;;;;;;0.05;0.05;;;14.60;82.30;;;;;;4966318;28;20118;-77
2022/05/01 07:49:40;;;;;;;0.00;0.00;;;14.70;81.20;;;;;;4975031;28;20625;-77
2022/05/01 07:52:06;;;;;;;0.60;0.47;;;15.00;81.10;;;;;;4968972;28;20042;-77
2022/05/01 07:54:35;;;;;;;0.03;0.03;;;15.20;80.20;;;;;;4967205;28;20030;-78
2022/05/01 07:57:00;;;;;;;0.65;0.65;;;15.40;79.20;;;;;;4969306;28;20484;-77
2022/05/01 07:59:25;;;;;;;0.57;0.32;;;15.50;80.00;;;;;;4969376;28;20093;-76
2022/05/01 08:01:52;;;;;;;1.55;0.82;;;15.70;75.40;;;;;;4973629;28;20133;-76
2022/05/01 08:04:29;;;;;;;1.65;1.17;;;15.80;72.90;;;;;;4969675;28;20529;-77
2022/05/01 08:06:59;;;;;;;0.08;0.08;;;16.10;72.50;;;;;;4974112;28;20098;-77
2022/05/01 08:09:29;;;;;;;0.10;0.10;;;16.10;69.50;;;;;;4970778;28;20035;-77
2022/05/01 08:11:55;;;;;;;0.40;0.40;;;16.20;68.10;;;;;;4973202;28;20039;-77
2022/05/01 08:14:21;;;;;;;0.10;0.10;;;16.40;67.20;;;;;;4971269;28;20763;-77
2022/05/01 08:16:48;;;;;;;0.50;0.50;;;16.40;68.20;;;;;;4974347;28;20492;-77
2022/05/01 08:21:58;;;;;;;0.05;0.05;;;16.30;66.60;;;;;;4973588;28;20081;-78
2022/05/01 08:24:23;;;;;;;0.93;0.93;;;16.30;66.50;;;;;;4971757;28;20030;-77
2022/05/01 08:26:49;;;;;;;0.10;0.10;;;16.30;66.30;;;;;;4975316;28;20019;-77
2022/05/01 08:29:15;;;;;;;0.20;0.20;;;16.30;63.50;;;;;;4973026;28;20030;-77
2022/05/01 08:31:42;;;;;;;0.22;0.22;;;16.00;64.50;;;;;;4973520;28;20069;-77
2022/05/01 08:34:09;;;;;;;0.38;0.38;;;15.90;65.10;;;;;;4973504;28;20038;-77
2022/05/01 08:36:34;;;;;;;0.17;0.17;;;15.90;65.40;;;;;;4971035;28;20030;-77
2022/05/01 08:39:00;;;;;;;0.10;0.10;;;15.90;66.10;;;;;;4968194;28;20217;-83
2022/05/01 08:41:29;;;;;;;0.20;0.10;;;16.00;66.40;;;;;;4967771;28;20627;-76
2022/05/01 08:43:56;;;;;;;0.20;0.20;;;15.90;67.60;;;;;;4971721;28;20634;-79
2022/05/01 08:46:28;;;;;;;0.90;0.55;;;15.80;64.20;;;;;;4970543;28;20042;-77
2022/05/01 08:49:04;;;;;;;0.10;0.10;;;15.80;64.90;;;;;;4971971;28;20442;-78
2022/05/01 08:51:50;;;;;;;0.00;0.00;;;15.80;66.00;;;;;;4970656;28;20051;-78
2022/05/01 08:54:16;;;;;;;0.43;0.25;;;15.70;66.90;;;;;;4969198;28;20038;-76
2022/05/01 08:56:44;;;;;;;0.10;0.10;;;15.70;67.50;;;;;;4969393;28;20580;-76
2022/05/01 08:59:12;;;;;;;0.10;0.10;;;15.60;67.90;;;;;;4971795;28;20130;-77
2022/05/01 09:01:39;;;;;;;0.00;0.00;;;15.70;67.20;;;;;;4972619;28;20122;-76
2022/05/01 09:04:06;;;;;;;0.20;0.20;;;15.70;66.20;;;;;;4970171;28;20261;-76
2022/05/01 09:06:35;;;;;;;0.00;0.00;;;15.80;65.70;;;;;;4970165;28;20041;-76
2022/05/01 09:09:04;;;;;;;0.25;0.10;;;15.80;63.80;;;;;;4968366;28;20188;-75
2022/05/01 09:14:13;;;;;;;0.43;0.32;;;16.00;63.50;;;;;;4970853;28;20030;-77
2022/05/01 09:16:39;;;;;;;0.22;0.17;;;16.00;63.00;;;;;;4970731;28;20034;-75
2022/05/01 09:19:05;;;;;;;0.00;0.00;;;15.90;62.50;;;;;;4972072;28;20532;-78
2022/05/01 09:21:50;;;;;;;0.00;0.00;;;16.10;63.50;;;;;;4972515;28;20038;-78
2022/05/01 09:24:28;;;;;;;0.17;0.17;;;16.40;63.30;;;;;;4963665;28;20646;-75
2022/05/01 09:26:56;;;;;;;0.00;0.00;;;16.40;61.10;;;;;;4969216;28;20405;-76
2022/05/01 09:29:23;;;;;;;0.32;0.32;;;16.50;59.30;;;;;;4968023;28;20496;-75
2022/05/01 09:31:50;;;;;;;0.00;0.00;;;16.70;60.10;;;;;;4969237;28;20034;-79
2022/05/01 09:34:23;;;;;;;0.00;0.00;;;16.80;58.20;;;;;;4972438;28;20035;-79
2022/05/01 09:36:49;;;;;;;0.10;0.10;;;16.80;58.20;;;;;;4969428;28;20026;-79
2022/05/01 09:39:27;;;;;;;18.45;0.60;;;16.90;58.60;;;;;;4969884;28;20037;-77
2022/05/01 09:41:54;;;;;;;0.17;0.17;;;16.90;57.30;;;;;;4970208;28;20027;-77
2022/05/01 09:44:21;;;;;;;0.05;0.05;;;16.80;57.10;;;;;;4970105;28;20026;-79
2022/05/01 09:46:48;;;;;;;0.10;0.10;;;16.70;57.20;;;;;;4968835;28;20027;-77
2022/05/01 09:49:19;;;;;;;0.00;0.00;;;16.60;57.20;;;;;;4970171;28;20050;-79
2022/05/01 09:51:56;;;;;;;0.10;0.10;;;16.50;57.10;;;;;;4963222;28;20791;-78
2022/05/01 09:54:24;;;;;;;2.13;0.65;;;16.30;58.10;;;;;;4967502;28;20019;-75
2022/05/01 09:56:52;;;;;;;0.32;0.10;;;16.20;59.10;;;;;;4969645;28;20390;-76
2022/05/01 09:59:22;;;;;;;0.22;0.10;;;16.20;59.50;;;;;;4969652;28;20029;-78
2022/05/01 10:02:04;;;;;;;0.00;0.00;;;16.10;59.50;;;;;;4967368;28;20057;-77
2022/05/01 10:04:35;;;;;;;0.20;0.20;;;15.90;58.80;;;;;;4969911;28;20166;-78
2022/05/01 10:07:01;;;;;;;0.30;0.30;;;15.80;59.10;;;;;;4968636;28;20038;-77
2022/05/01 10:09:29;;;;;;;0.00;0.00;;;15.70;60.10;;;;;;4969947;28;20038;-76
2022/05/01 10:11:58;;;;;;;0.10;0.10;;;15.60;60.70;;;;;;4968352;28;20062;-77
2022/05/01 10:14:26;;;;;;;0.40;0.40;;;15.70;60.40;;;;;;4966716;28;20082;-79
2022/05/01 10:16:54;;;;;;;1.00;0.85;;;15.60;60.80;;;;;;4963812;28;20026;-79
2022/05/01 10:19:23;;;;;;;0.52;0.50;;;15.70;61.20;;;;;;4962355;28;20041;-79
2022/05/01 10:21:51;;;;;;;0.10;0.10;;;15.80;61.70;;;;;;4970549;28;20034;-79
2022/05/01 10:24:17;;;;;;;0.10;0.10;;;15.90;61.60;;;;;;4968189;28;20093;-78
2022/05/01 10:27:20;;;;;;;0.10;0.10;;;16.00;60.80;;;;;;4974007;28;20497;-78
2022/05/01 10:32:58;;;;;;;0.68;0.68;;;16.30;60.40;;;;;;4966834;28;20126;-79
2022/05/01 10:35:58;;;;;;;0.08;0.08;;;16.50;59.40;;;;;;4967345;28;20033;-79
2022/05/01 10:38:48;;;;;;;0.13;0.13;;;16.70;59.00;;;;;;4970120;28;20046;-79
2022/05/01 10:41:16;;;;;;;2.05;0.98;;;17.00;58.10;;;;;;4969887;28;20023;-78
2022/05/01 10:43:56;;;;;;;0.03;0.03;;;17.00;59.20;;;;;;4970963;28;20035;-78
2022/05/01 10:46:22;;;;;;;0.22;0.22;;;17.10;57.00;;;;;;4969475;28;20058;-79
2022/05/01 10:48:48;;;;;;;0.15;0.15;;;17.20;57.60;;;;;;4967296;28;20035;-78
2022/05/01 10:51:36;;;;;;;0.30;0.30;;;16.90;58.60;;;;;;4973401;28;20031;-79
2022/05/01 10:54:13;;;;;;;0.00;0.00;;;16.80;57.00;;;;;;4964918;28;20041;-78
2022/05/01 10:56:46;;;;;;;1.55;0.52;;;16.80;57.60;;;;;;4968162;28;20658;-78
2022/05/01 10:59:39;;;;;;;0.57;0.57;;;16.90;58.60;;;;;;4975651;28;20023;-78
2022/05/01 11:02:28;;;;;;;0.00;0.00;;;16.90;58.10;;;;;;4968336;28;20078;-79
2022/05/01 11:04:55;;;;;;;1.30;0.68;;;16.90;58.90;;;;;;4970564;28;20035;-78
2022/05/01 11:07:23;;;;;;;0.00;0.00;;;17.20;57.70;;;;;;4968465;28;20030;-78
2022/05/01 11:09:53;;;;;;;0.38;0.20;;;17.30;57.70;;;;;;4965764;28;20031;-79
2022/05/01 11:12:21;;;;;;;0.30;0.23;;;17.50;57.50;;;;;;4969788;28;20163;-78
2022/05/01 11:14:55;;;;;;;0.32;0.10;;;17.60;56.20;;;;;;4969961;28;20290;-79
2022/05/01 11:17:46;;;;;;;7.22;0.63;;;17.50;57.90;;;;;;4969540;28;20494;-78
2022/05/01 11:20:14;;;;;;;0.50;0.25;;;17.40;56.70;;;;;;4970379;28;20102;-79
2022/05/01 11:22:41;;;;;;;0.10;0.10;;;17.40;56.90;;;;;;4968052;28;20042;-78
2022/05/01 11:25:12;;;;;;;0.85;0.73;;;17.40;58.20;;;;;;4967367;28;20031;-83
2022/05/01 11:27:51;;;;;;;0.35;0.28;;;17.30;57.30;;;;;;4969579;28;20070;-79
2022/05/01 11:30:33;;;;;;;0.10;0.10;;;17.40;58.20;;;;;;4966727;28;20287;-79
2022/05/01 11:33:06;;;;;;;0.17;0.17;;;17.20;56.80;;;;;;4969348;28;20041;-78
2022/05/01 11:35:54;;;;;;;0.10;0.10;;;17.10;57.60;;;;;;4968859;28;20022;-78
2022/05/01 11:38:31;;;;;;;0.10;0.10;;;17.00;57.20;;;;;;4968263;28;20033;-79
2022/05/01 11:41:00;;;;;;;0.20;0.20;;;16.80;56.80;;;;;;4960179;28;20029;-79
2022/05/01 11:43:28;;;;;;;0.00;0.00;;;16.80;57.20;;;;;;4966215;28;20515;-79
2022/05/01 11:45:55;;;;;;;0.15;0.13;;;16.80;57.50;;;;;;4964998;28;20049;-78
2022/05/01 11:48:21;;;;;;;8.18;2.58;;;16.80;57.70;;;;;;4962145;28;20031;-79
2022/05/01 11:50:50;;;;;;;1.05;0.38;;;16.80;57.00;;;;;;4969200;28;20698;-79
2022/05/01 11:53:49;;;;;;;0.05;0.05;;;16.80;56.30;;;;;;4966815;28;20046;-78
2022/05/01 12:04:38;;;;;;;0.10;0.10;;;17.10;57.30;;;;;;4966825;28;20030;-80
2022/05/01 12:07:20;;;;;;;0.10;0.10;;;17.10;56.10;;;;;;4964619;28;20030;-79
2022/05/01 12:09:47;;;;;;;0.10;0.10;;;17.10;56.60;;;;;;4968709;28;20042;-79
2022/05/01 12:12:16;;;;;;;0.10;0.10;;;17.00;56.60;;;;;;4967152;28;20035;-79
2022/05/01 12:14:43;;;;;;;0.40;0.40;;;16.90;57.90;;;;;;4968135;28;20145;-79
2022/05/01 12:17:16;;;;;;;0.20;0.20;;;16.90;56.90;;;;;;4967795;28;20023;-80
2022/05/01 12:19:44;;;;;;;0.15;0.15;;;16.80;58.10;;;;;;4964432;28;20884;-79
2022/05/01 12:22:21;;;;;;;1.45;0.75;;;16.80;57.70;;;;;;4967768;28;20035;-80
2022/05/01 12:24:48;;;;;;;0.00;0.00;;;16.60;58.70;;;;;;4968979;28;20144;-79
2022/05/01 12:27:16;;;;;;;0.15;0.15;;;16.60;57.60;;;;;;4969033;28;20035;-79
2022/05/01 12:29:54;;;;;;;0.95;0.73;;;16.40;59.70;;;;;;4965081;28;20473;-79
2022/05/01 12:32:20;;;;;;;0.10;0.10;;;16.40;60.00;;;;;;4978042;28;20440;-79
2022/05/01 12:34:46;;;;;;;0.77;0.45;;;16.50;59.70;;;;;;4968551;28;20019;-79
2022/05/01 12:37:13;;;;;;;1.67;0.57;;;16.50;59.00;;;;;;4968908;28;20138;-79
2022/05/01 12:39:38;;;;;;;0.65;0.55;;;16.70;58.80;;;;;;4969388;28;20057;-79
2022/05/01 12:45:18;;;;;;;0.38;0.22;;;16.80;59.00;;;;;;4965939;28;20082;-81
2022/05/01 12:47:51;;;;;;;0.10;0.10;;;17.00;58.70;;;;;;4968584;28;20398;-80
2022/05/01 12:50:20;;;;;;;0.50;0.50;;;17.10;58.30;;;;;;4980589;28;20564;-80
2022/05/01 12:52:47;;;;;;;0.28;0.28;;;17.10;58.50;;;;;;4968325;28;20401;-80
2022/05/01 12:55:40;;;;;;;0.28;0.10;;;17.20;58.70;;;;;;4972621;28;20033;-79
2022/05/01 12:58:11;;;;;;;0.20;0.17;;;17.30;58.10;;;;;;4969125;28;20078;-80
2022/05/01 13:00:43;;;;;;;0.03;0.03;;;17.30;56.50;;;;;;4973305;28;20027;-80
2022/05/01 13:03:28;;;;;;;0.63;0.50;;;17.20;56.50;;;;;;4974641;28;20038;-80
2022/05/01 13:06:05;;;;;;;0.15;0.15;;;17.00;56.30;;;;;;4969314;28;20035;-80
2022/05/01 13:08:35;;;;;;;0.55;0.43;;;16.90;58.80;;;;;;4966211;28;20041;-80
2022/05/01 13:11:27;;;;;;;0.00;0.00;;;16.90;59.00;;;;;;4973075;28;20026;-81
2022/05/01 13:14:08;;;;;;;0.10;0.10;;;16.80;58.00;;;;;;4972654;28;20018;-80
2022/05/01 13:16:33;;;;;;;0.30;0.30;;;16.80;57.20;;;;;;4972631;28;20034;-80
2022/05/01 13:19:10;;;;;;;0.00;0.00;;;16.80;57.30;;;;;;4972852;28;20027;-80
2022/05/01 13:21:43;;;;;;;1.10;0.47;;;16.80;57.80;;;;;;4969551;28;20035;-80
2022/05/01 13:24:13;;;;;;;0.00;0.00;;;16.90;57.70;;;;;;4962852;28;20101;-80
2022/05/01 13:26:39;;;;;;;0.00;0.00;;;17.10;57.60;;;;;;4971839;28;20034;-80
2022/05/01 13:29:09;;;;;;;0.00;0.00;;;17.20;56.50;;;;;;4972063;28;20038;-80
2022/05/01 13:31:40;;;;;;;0.90;0.13;;;17.40;56.30;;;;;;4971360;28;20026;-80
2022/05/01 13:34:06;;;;;;;0.10;0.10;;;17.50;55.20;;;;;;4971008;28;20117;-80
2022/05/01 13:36:33;;;;;;;1.02;0.63;;;17.50;56.10;;;;;;4975640;28;20034;-80